Time;durP1;ratioP1;P1;durP2;ratioP2;P2;SDS_P1;SDS_P2;PMS_P1;PMS_P2;Temp;Humidity;BMP_temperature;BMP_pressure;BME280_temperature;BME280_humidity;BME280_pressure;Samples;Min_cycle;Max_cycle;Signal;HPM_P1;HPM_P2
2023/04/11 00:01:59;;;;;;;8.40;4.95;;;;;;;11.43;56.76;101140.22;5014820;28;20422;-89
2023/04/11 00:04:25;;;;;;;5.10;3.35;;;;;;;11.49;57.00;101144.28;5047753;28;20392;-89
2023/04/11 00:06:50;;;;;;;6.65;4.20;;;;;;;11.44;56.49;101146.25;5015055;28;20034;-89
2023/04/11 00:09:16;;;;;;;8.20;5.05;;;;;;;11.44;56.21;101138.47;5014991;28;20445;-91
2023/04/11 00:11:42;;;;;;;8.25;4.80;;;;;;;11.37;56.56;101152.59;5014421;28;20060;-89
2023/04/11 00:14:07;;;;;;;6.38;4.03;;;;;;;11.31;56.85;101139.94;5014770;28;20025;-89
2023/04/11 00:16:33;;;;;;;9.05;5.03;;;;;;;11.18;57.13;101114.53;5015096;28;20041;-90
2023/04/11 00:18:59;;;;;;;6.72;3.88;;;;;;;11.22;58.66;101133.41;5014873;28;20022;-90
2023/04/11 00:21:25;;;;;;;6.57;3.85;;;;;;;11.19;59.23;101142.13;5014787;28;20036;-89
2023/04/11 00:23:54;;;;;;;6.13;3.70;;;;;;;10.99;59.88;101152.47;5030630;28;20057;-88
2023/04/11 00:26:22;;;;;;;10.50;4.50;;;;;;;10.60;60.97;101124.75;5013954;28;20430;-89
2023/04/11 00:28:47;;;;;;;7.35;4.30;;;;;;;10.64;61.30;101141.03;5032132;28;20035;-89
2023/04/11 00:31:13;;;;;;;6.38;3.92;;;;;;;10.66;61.35;101138.38;5030989;28;20026;-89
2023/04/11 00:33:38;;;;;;;5.25;3.75;;;;;;;10.56;60.82;101130.97;5014501;28;20025;-90
2023/04/11 00:36:04;;;;;;;7.38;4.10;;;;;;;10.53;61.21;101125.09;5014575;28;20032;-89
2023/04/11 00:38:31;;;;;;;7.25;4.20;;;;;;;10.58;60.91;101128.31;5031240;28;20464;-89
2023/04/11 00:40:56;;;;;;;6.43;3.67;;;;;;;10.56;60.90;101136.16;5014344;28;20163;-90
2023/04/11 00:43:22;;;;;;;4.70;3.70;;;;;;;10.54;61.13;101140.56;5014308;28;20065;-88
2023/04/11 00:45:47;;;;;;;11.30;4.95;;;;;;;10.49;60.86;101134.72;5030556;28;20056;-90
2023/04/11 00:48:13;;;;;;;5.45;3.78;;;;;;;10.28;61.32;101115.72;4997821;28;20029;-89
2023/04/11 00:50:39;;;;;;;6.55;4.63;;;;;;;10.36;61.24;101132.69;5014298;28;20470;-89
2023/04/11 00:53:05;;;;;;;5.32;3.53;;;;;;;10.32;61.28;101121.59;5013865;28;20034;-88
2023/04/11 00:55:31;;;;;;;8.32;5.55;;;;;;;10.35;61.19;101131.84;5013668;28;20040;-88
2023/04/11 00:57:57;;;;;;;7.35;4.53;;;;;;;10.22;61.06;101102.19;5030687;28;20084;-90
2023/04/11 01:00:22;;;;;;;6.47;4.13;;;;;;;10.26;60.83;101127.88;5014060;28;20037;-89
2023/04/11 01:02:48;;;;;;;6.00;3.88;;;;;;;10.30;61.11;101144.94;5014030;28;20029;-88
2023/04/11 01:05:14;;;;;;;7.78;4.63;;;;;;;10.02;60.96;101082.25;5014225;28;20079;-89
2023/04/11 01:07:40;;;;;;;5.32;4.15;;;;;;;10.28;60.97;101130.41;5013960;28;20029;-89
2023/04/11 01:10:06;;;;;;;5.43;3.53;;;;;;;10.33;60.85;101137.09;5030253;28;20036;-88
2023/04/11 01:12:32;;;;;;;5.20;3.47;;;;;;;10.27;61.08;101121.81;5030341;28;20497;-90
2023/04/11 01:14:57;;;;;;;7.00;4.50;;;;;;;10.15;60.75;101116.25;5013944;28;20029;-90
2023/04/11 01:17:24;;;;;;;4.63;3.50;;;;;;;10.25;60.84;101120.19;5014086;28;20030;-88
2023/04/11 01:19:50;;;;;;;5.82;3.80;;;;;;;10.07;61.01;101109.63;4997793;28;20022;-90
2023/04/11 01:22:16;;;;;;;9.93;5.10;;;;;;;10.11;61.84;101128.44;5013710;28;20036;-91
2023/04/11 01:24:42;;;;;;;6.90;4.28;;;;;;;10.12;61.38;101139.63;5013352;28;20125;-89
2023/04/11 01:27:08;;;;;;;6.93;3.85;;;;;;;10.06;61.45;101140.72;5014120;28;20112;-90
2023/04/11 01:29:33;;;;;;;6.03;3.72;;;;;;;10.03;61.62;101136.50;5030082;28;20421;-88
2023/04/11 01:31:59;;;;;;;5.97;4.05;;;;;;;10.03;61.70;101139.09;5030777;28;20045;-88
2023/04/11 01:34:27;;;;;;;6.82;4.05;;;;;;;9.93;61.50;101132.59;5031023;28;20037;-88
2023/04/11 01:36:52;;;;;;;9.40;4.00;;;;;;;9.75;61.94;101112.63;5013593;28;20032;-90
2023/04/11 01:39:17;;;;;;;5.30;4.07;;;;;;;9.99;62.00;101134.09;5013065;28;20030;-89
2023/04/11 01:41:43;;;;;;;5.13;3.83;;;;;;;9.93;62.24;101129.16;5013435;28;20033;-90
2023/04/11 01:44:08;;;;;;;6.68;4.60;;;;;;;9.91;62.40;101131.78;4996976;28;20025;-87
2023/04/11 01:46:34;;;;;;;4.82;3.80;;;;;;;9.66;62.42;101103.47;5013231;28;20033;-87
2023/04/11 01:49:00;;;;;;;5.82;4.32;;;;;;;9.67;62.88;101127.56;5013391;28;20392;-88
2023/04/11 01:51:26;;;;;;;7.35;4.53;;;;;;;9.76;62.75;101125.47;5013394;28;20072;-90
2023/04/11 01:53:51;;;;;;;7.10;4.60;;;;;;;9.69;62.90;101120.59;5012747;28;20029;-90
2023/04/11 01:56:17;;;;;;;6.70;4.63;;;;;;;9.66;63.27;101125.88;5013636;28;20030;-90
2023/04/11 01:58:42;;;;;;;5.22;3.78;;;;;;;9.57;63.36;101115.88;5013093;28;20029;-88
2023/04/11 02:01:08;;;;;;;4.40;3.60;;;;;;;9.64;63.35;101112.19;5013301;28;20037;-88
2023/04/11 02:03:35;;;;;;;9.80;3.85;;;;;;;9.76;63.23;101134.97;5013074;28;20514;-88
2023/04/11 02:06:01;;;;;;;6.75;3.75;;;;;;;9.71;63.25;101113.63;5013333;28;20037;-90
2023/04/11 02:08:26;;;;;;;5.07;3.63;;;;;;;9.64;63.29;101104.44;5012888;28;20029;-90
2023/04/11 02:10:51;;;;;;;4.40;2.95;;;;;;;9.74;63.46;101121.28;5013054;28;20033;-87
2023/04/11 02:13:17;;;;;;;4.65;3.22;;;;;;;9.48;63.89;101084.31;5029353;28;20038;-88
2023/04/11 02:15:43;;;;;;;7.13;3.97;;;;;;;9.74;63.12;101113.53;5032611;28;20092;-89
2023/04/11 02:18:08;;;;;;;5.72;4.22;;;;;;;9.73;63.38;101114.38;5000450;28;20414;-88
2023/04/11 02:20:36;;;;;;;6.15;3.72;;;;;;;9.79;63.46;101116.75;5033782;28;20037;-89
2023/04/11 02:23:03;;;;;;;5.35;3.33;;;;;;;9.68;63.43;101104.25;5000591;28;20383;-88
2023/04/11 02:25:29;;;;;;;5.80;3.70;;;;;;;9.74;63.46;101110.94;5016927;28;20660;-89
2023/04/11 02:27:55;;;;;;;5.65;3.55;;;;;;;9.80;63.65;101113.28;5017052;28;20061;-88
2023/04/11 02:30:20;;;;;;;5.22;3.67;;;;;;;9.66;63.90;101105.22;5016747;28;20117;-88
2023/04/11 02:32:48;;;;;;;4.95;3.45;;;;;;;9.64;64.04;101105.28;5032973;28;20057;-90
2023/04/11 02:35:14;;;;;;;5.05;3.22;;;;;;;9.70;63.85;101117.09;5017261;28;20059;-88
2023/04/11 02:37:39;;;;;;;4.95;3.30;;;;;;;9.70;64.16;101122.25;5016680;28;20104;-89
2023/04/11 02:40:06;;;;;;;4.78;3.45;;;;;;;9.70;64.16;101127.44;5016558;28;20025;-88
2023/04/11 02:42:32;;;;;;;3.92;2.95;;;;;;;9.75;63.84;101130.69;5033089;28;20080;-90
2023/04/11 02:44:58;;;;;;;7.03;4.10;;;;;;;9.82;64.04;101126.97;5016571;28;20029;-89
2023/04/11 02:47:24;;;;;;;5.60;2.80;;;;;;;9.82;63.92;101124.38;5000178;28;20489;-89
2023/04/11 02:49:49;;;;;;;6.40;3.83;;;;;;;9.84;64.39;101114.00;5032621;28;20037;-89
2023/04/11 02:52:16;;;;;;;6.85;4.25;;;;;;;9.85;64.08;101124.28;5016114;28;20030;-88
2023/04/11 02:54:42;;;;;;;6.72;3.40;;;;;;;9.86;64.52;101122.53;5016362;28;20501;-89
2023/04/11 02:57:07;;;;;;;4.15;3.08;;;;;;;9.74;64.79;101118.69;5000314;28;20021;-89
2023/04/11 02:59:33;;;;;;;5.43;3.50;;;;;;;9.81;64.40;101117.53;5032863;28;20029;-83
2023/04/11 03:01:59;;;;;;;4.50;3.30;;;;;;;9.81;63.99;101130.44;5032803;28;20041;-85
2023/04/11 03:04:24;;;;;;;6.80;3.83;;;;;;;9.81;63.74;101127.88;5015789;28;20025;-87
2023/04/11 03:06:50;;;;;;;5.25;3.80;;;;;;;9.82;63.31;101121.78;5015561;28;20033;-88
2023/04/11 03:09:15;;;;;;;6.55;3.58;;;;;;;9.75;63.79;101115.19;5016247;28;20029;-87
2023/04/11 03:11:41;;;;;;;5.10;3.13;;;;;;;9.69;63.46;101131.75;4999482;28;20040;-88
2023/04/11 03:14:06;;;;;;;6.00;3.17;;;;;;;9.61;63.49;101107.09;5015502;28;20506;-86
2023/04/11 03:16:32;;;;;;;4.40;3.45;;;;;;;9.60;63.39;101121.75;5015692;28;20048;-86
2023/04/11 03:18:57;;;;;;;6.60;3.83;;;;;;;9.65;63.37;101134.53;5031856;28;20505;-86
2023/04/11 03:21:23;;;;;;;5.80;3.33;;;;;;;9.64;63.69;101133.69;5015134;28;20029;-86
2023/04/11 03:23:48;;;;;;;5.72;4.05;;;;;;;9.66;63.22;101123.28;5015454;28;20029;-87
2023/04/11 03:26:14;;;;;;;5.25;3.72;;;;;;;9.62;63.18;101126.88;5030565;28;20040;-87
2023/04/11 03:28:40;;;;;;;4.55;2.70;;;;;;;9.73;62.76;101141.09;5031993;28;20026;-86
2023/04/11 03:31:06;;;;;;;5.88;3.30;;;;;;;9.53;62.87;101130.63;4999049;28;20548;-86
2023/04/11 03:33:31;;;;;;;5.25;3.92;;;;;;;9.64;63.20;101135.44;5013551;28;20057;-84
2023/04/11 03:35:57;;;;;;;3.78;3.03;;;;;;;9.70;63.16;101138.59;5030133;28;20025;-85
2023/04/11 03:38:22;;;;;;;4.47;3.15;;;;;;;9.73;62.66;101132.47;5031981;28;20499;-86
2023/04/11 03:40:47;;;;;;;5.97;3.28;;;;;;;9.71;62.71;101139.44;5014756;28;20056;-86
2023/04/11 03:43:14;;;;;;;4.32;3.22;;;;;;;9.55;62.70;101128.03;5032535;28;20030;-85
2023/04/11 03:45:39;;;;;;;4.55;3.25;;;;;;;9.58;63.03;101144.22;5014791;28;20033;-85
2023/04/11 03:48:05;;;;;;;4.75;3.40;;;;;;;9.50;62.95;101143.66;5014944;28;20041;-86
2023/04/11 03:50:30;;;;;;;6.75;3.90;;;;;;;9.42;63.05;101128.44;5031038;28;20509;-85
2023/04/11 03:52:56;;;;;;;6.03;3.95;;;;;;;9.40;63.17;101134.56;5030991;28;20037;-85
2023/04/11 03:55:21;;;;;;;8.23;3.40;;;;;;;9.40;62.99;101138.00;5031241;28;20483;-85
2023/04/11 03:57:47;;;;;;;6.03;3.60;;;;;;;9.19;63.74;101133.59;5012109;28;20029;-85
2023/04/11 04:00:13;;;;;;;7.07;4.28;;;;;;;9.26;64.20;101142.81;5014685;28;20032;-85
2023/04/11 04:02:39;;;;;;;4.22;3.22;;;;;;;9.15;64.29;101134.59;5014404;28;20076;-86
2023/04/11 04:05:05;;;;;;;6.15;3.67;;;;;;;9.23;64.44;101139.47;5013322;28;20030;-86
2023/04/11 04:07:31;;;;;;;5.95;2.90;;;;;;;9.25;64.36;101151.47;5014080;28;20033;-84
2023/04/11 04:09:57;;;;;;;7.07;4.03;;;;;;;9.05;64.39;101122.91;5030377;28;20035;-85
2023/04/11 04:12:22;;;;;;;4.78;2.75;;;;;;;9.17;65.10;101135.38;5014375;28;20021;-84
2023/04/11 04:14:48;;;;;;;4.88;3.30;;;;;;;9.07;65.65;101131.44;5014156;28;20427;-84
2023/04/11 04:17:14;;;;;;;6.25;3.85;;;;;;;9.14;64.69;101133.75;5029469;28;20064;-83
2023/04/11 04:19:40;;;;;;;4.28;3.13;;;;;;;9.11;65.20;101151.06;5027019;28;20022;-85
2023/04/11 04:22:10;;;;;;;5.68;4.05;;;;;;;9.07;65.32;101126.28;5013795;28;20064;-86
2023/04/11 04:24:40;;;;;;;6.25;3.40;;;;;;;9.12;64.88;101137.28;5015102;28;20022;-90
2023/04/11 04:27:09;;;;;;;6.53;4.13;;;;;;;9.04;65.39;101132.38;5014308;28;20029;-88
2023/04/11 04:29:37;;;;;;;8.25;3.70;;;;;;;9.03;65.65;101129.84;4998275;28;20034;-83
2023/04/11 04:32:09;;;;;;;5.00;3.85;;;;;;;8.99;66.08;101130.84;5013989;28;20060;-87
2023/04/11 04:34:53;;;;;;;4.07;3.10;;;;;;;8.98;66.04;101124.84;4998896;28;20537;-85
2023/04/11 04:37:23;;;;;;;5.10;4.25;;;;;;;8.98;66.24;101131.75;5015335;28;20033;-84
2023/04/11 04:39:55;;;;;;;5.97;3.50;;;;;;;8.87;65.94;101124.38;4997227;28;20561;-85
2023/04/11 04:42:25;;;;;;;6.05;2.78;;;;;;;8.95;66.31;101126.69;5030756;28;20029;-87
2023/04/11 04:44:51;;;;;;;7.93;4.22;;;;;;;8.89;66.07;101113.09;5020453;28;20049;-88
2023/04/11 04:47:16;;;;;;;6.60;3.80;;;;;;;9.05;66.01;101112.59;5027964;28;20091;-83
2023/04/11 04:49:45;;;;;;;4.95;3.75;;;;;;;9.08;66.01;101103.00;5012806;28;20406;-83
2023/04/11 04:52:13;;;;;;;5.40;4.47;;;;;;;8.96;65.54;101084.53;5011271;28;20056;-85
2023/04/11 04:54:39;;;;;;;5.43;4.05;;;;;;;9.13;65.90;101102.81;5011944;28;20029;-83
2023/04/11 04:57:07;;;;;;;5.13;4.28;;;;;;;9.10;66.17;101095.19;4996599;28;20052;-88
2023/04/11 04:59:33;;;;;;;3.92;3.17;;;;;;;9.16;65.10;101102.72;5015851;28;20033;-91
2023/04/11 05:01:59;;;;;;;6.97;4.18;;;;;;;9.11;65.31;101109.78;5013259;28;20063;-87
2023/04/11 05:04:24;;;;;;;5.10;3.92;;;;;;;9.17;65.40;101094.09;5029190;28;20025;-91
2023/04/11 05:06:50;;;;;;;5.32;4.07;;;;;;;9.24;65.37;101098.09;5007108;28;20529;-85
2023/04/11 05:09:15;;;;;;;8.52;4.10;;;;;;;9.28;65.38;101088.53;5029381;28;20079;-90
2023/04/11 05:11:41;;;;;;;6.07;3.72;;;;;;;9.26;65.63;101100.66;5015957;28;20393;-87
2023/04/11 05:14:06;;;;;;;6.97;4.57;;;;;;;9.22;65.42;101074.09;5011627;28;20087;-85
2023/04/11 05:16:33;;;;;;;5.95;3.83;;;;;;;9.40;65.52;101093.25;5030774;28;20049;-90
2023/04/11 05:18:59;;;;;;;7.72;4.20;;;;;;;9.25;64.96;101055.09;5032099;28;20040;-87
2023/04/11 05:21:25;;;;;;;6.13;3.80;;;;;;;9.53;65.23;101093.63;5025098;28;20108;-89
2023/04/11 05:23:51;;;;;;;4.78;3.70;;;;;;;9.47;64.70;101076.63;5014210;28;20057;-92
2023/04/11 05:26:16;;;;;;;11.05;3.83;;;;;;;9.58;64.76;101083.97;5012476;28;20040;-85
2023/04/11 05:28:42;;;;;;;7.10;4.10;;;;;;;9.65;64.34;101082.88;5013540;28;20033;-91
2023/04/11 05:31:08;;;;;;;7.35;4.43;;;;;;;9.64;64.79;101087.19;5011652;28;20098;-83
2023/04/11 05:33:37;;;;;;;4.70;3.97;;;;;;;9.76;64.84;101080.72;5012079;28;20060;-89
2023/04/11 05:36:03;;;;;;;6.97;4.82;;;;;;;9.76;64.08;101068.63;5012643;28;20033;-88
2023/04/11 05:38:28;;;;;;;10.20;4.78;;;;;;;9.97;63.91;101079.03;5027221;28;20608;-82
2023/04/11 05:40:53;;;;;;;4.78;3.15;;;;;;;9.99;63.74;101075.47;5049105;28;20036;-87
2023/04/11 05:43:19;;;;;;;7.25;5.03;;;;;;;9.97;63.58;101059.19;5024567;28;20482;-83
2023/04/11 05:45:48;;;;;;;6.85;4.03;;;;;;;10.12;63.08;101077.56;5037368;28;20029;-87
2023/04/11 05:48:13;;;;;;;5.57;2.95;;;;;;;10.15;63.21;101086.06;5011782;28;20024;-89
2023/04/11 05:50:39;;;;;;;6.43;4.07;;;;;;;10.17;63.70;101081.66;5019416;28;20061;-88
2023/04/11 05:53:06;;;;;;;4.90;3.80;;;;;;;10.36;63.15;101081.81;5011503;28;20056;-91
2023/04/11 05:55:31;;;;;;;8.95;5.05;;;;;;;10.50;63.09;101078.63;5030010;28;20104;-90
2023/04/11 05:57:57;;;;;;;10.98;4.78;;;;;;;10.53;61.88;101074.19;4993620;28;20723;-92
2023/04/11 06:00:23;;;;;;;6.93;4.18;;;;;;;10.62;62.41;101068.66;5032654;28;20033;-90
2023/04/11 06:02:49;;;;;;;5.30;3.53;;;;;;;10.90;62.25;101065.69;5035478;28;20037;-87
2023/04/11 06:05:16;;;;;;;6.93;4.55;;;;;;;10.91;60.88;101058.78;5031538;28;20032;-83
2023/04/11 06:07:42;;;;;;;6.13;3.72;;;;;;;11.11;60.74;101069.13;5030141;28;20070;-91
2023/04/11 06:10:08;;;;;;;6.38;3.67;;;;;;;11.25;60.56;101068.50;5017554;28;20108;-86
2023/04/11 06:12:33;;;;;;;6.53;3.88;;;;;;;11.31;59.81;101050.09;5006294;28;20523;-86
2023/04/11 06:14:59;;;;;;;5.78;3.63;;;;;;;11.56;59.24;101056.75;5008430;28;20171;-84
2023/04/11 06:17:24;;;;;;;7.32;4.78;;;;;;;11.62;60.80;101035.75;5012260;28;20075;-88
2023/04/11 06:19:57;;;;;;;7.40;4.03;;;;;;;11.72;58.85;101031.81;5033715;28;20033;-94
2023/04/11 06:22:22;;;;;;;5.65;3.67;;;;;;;12.07;57.23;101053.47;5012396;28;20029;-87
2023/04/11 06:24:48;;;;;;;6.75;4.85;;;;;;;12.18;57.51;101056.38;5028784;28;20113;-82
2023/04/11 06:27:13;;;;;;;6.10;2.88;;;;;;;12.17;55.95;101054.72;5043689;28;20410;-91
2023/04/11 06:29:40;;;;;;;13.05;4.65;;;;;;;12.09;56.26;101032.66;5013222;28;20458;-92
2023/04/11 06:32:06;;;;;;;9.63;3.67;;;;;;;12.27;56.17;101058.53;5013530;28;20053;-91
2023/04/11 06:34:32;;;;;;;9.82;4.82;;;;;;;12.30;55.98;101053.22;4995852;28;20343;-91
2023/04/11 06:36:57;;;;;;;5.20;2.75;;;;;;;12.33;55.03;101039.25;5015754;28;20086;-90
2023/04/11 06:39:23;;;;;;;7.63;3.80;;;;;;;12.50;55.22;101036.66;5030503;28;20034;-89
2023/04/11 06:41:48;;;;;;;10.45;4.03;;;;;;;12.67;54.27;101048.75;5023645;28;20029;-83
2023/04/11 06:44:14;;;;;;;8.80;4.57;;;;;;;12.69;54.66;101036.56;5029447;28;20530;-86
2023/04/11 06:46:39;;;;;;;7.47;4.47;;;;;;;12.86;54.61;101038.28;5030080;28;20029;-85
2023/04/11 06:49:06;;;;;;;6.00;4.00;;;;;;;12.87;54.34;100999.25;5029606;28;20501;-84
2023/04/11 06:51:34;;;;;;;10.82;4.15;;;;;;;13.15;53.72;101018.56;5038525;28;20517;-89
2023/04/11 06:54:01;;;;;;;7.20;4.15;;;;;;;13.18;53.54;101021.03;5039333;28;20082;-82
2023/04/11 06:56:26;;;;;;;8.73;3.75;;;;;;;13.25;52.72;101018.94;5019382;28;20416;-83
2023/04/11 06:58:51;;;;;;;7.95;4.05;;;;;;;13.14;52.21;101001.31;5016292;28;20045;-87
2023/04/11 07:01:19;;;;;;;9.20;4.70;;;;;;;13.41;52.62;101018.03;5033212;28;20029;-88
2023/04/11 07:03:46;;;;;;;12.98;7.25;;;;;;;13.40;51.81;101003.38;5016765;28;20034;-85
2023/04/11 07:06:11;;;;;;;7.85;3.75;;;;;;;13.62;51.60;101025.59;5023795;28;20116;-82
2023/04/11 07:08:37;;;;;;;5.55;3.45;;;;;;;13.61;52.03;101019.53;5031117;28;20036;-84
2023/04/11 07:11:02;;;;;;;6.82;4.18;;;;;;;13.69;51.97;101019.97;5037551;28;20060;-84
2023/04/11 07:13:28;;;;;;;8.70;4.32;;;;;;;13.75;51.40;101016.16;5050362;28;20171;-86
2023/04/11 07:15:54;;;;;;;7.20;3.72;;;;;;;13.59;51.27;100984.16;5034176;28;20033;-92
2023/04/11 07:18:19;;;;;;;9.38;4.90;;;;;;;13.73;50.74;100999.81;5026560;28;20025;-91
2023/04/11 07:20:45;;;;;;;6.45;3.38;;;;;;;13.77;50.69;100998.75;5014165;28;20033;-89
2023/04/11 07:23:10;;;;;;;7.97;4.55;;;;;;;13.86;51.23;100993.00;5015729;28;20033;-91
2023/04/11 07:25:38;;;;;;;8.73;5.38;;;;;;;14.04;50.30;100994.56;5031083;28;20541;-84
2023/04/11 07:28:06;;;;;;;4.88;3.13;;;;;;;14.24;49.79;100990.78;5043842;28;20064;-92
2023/04/11 07:30:32;;;;;;;10.25;4.20;;;;;;;14.42;48.94;100993.25;5034054;28;20116;-88
2023/04/11 07:32:57;;;;;;;7.40;3.92;;;;;;;14.45;47.11;100990.50;5012586;28;20124;-87
2023/04/11 07:35:23;;;;;;;8.82;4.20;;;;;;;14.39;46.65;100978.66;5031077;28;20514;-89
2023/04/11 07:37:48;;;;;;;7.63;4.35;;;;;;;14.62;46.81;100985.97;5030107;28;20025;-88
2023/04/11 07:40:14;;;;;;;6.28;3.85;;;;;;;14.68;46.00;100978.72;5046783;28;20040;-87
2023/04/11 07:42:40;;;;;;;6.70;3.50;;;;;;;14.63;45.92;100971.16;5014124;28;20025;-84
2023/04/11 07:45:06;;;;;;;5.75;3.38;;;;;;;14.72;45.18;100970.63;5029673;28;20078;-82
2023/04/11 07:47:31;;;;;;;6.47;3.80;;;;;;;14.91;45.97;100980.75;5014071;28;20026;-84
2023/04/11 07:49:57;;;;;;;5.88;3.08;;;;;;;15.00;45.52;100985.41;5030291;28;20034;-84
2023/04/11 07:52:24;;;;;;;5.57;2.53;;;;;;;14.84;45.17;100949.03;5030639;28;20036;-88
2023/04/11 07:54:49;;;;;;;5.78;3.10;;;;;;;14.99;45.48;100962.06;5029667;28;20082;-86
2023/04/11 07:57:15;;;;;;;4.32;2.45;;;;;;;15.31;44.95;100979.13;5034858;28;20061;-86
2023/04/11 07:59:41;;;;;;;5.10;2.70;;;;;;;15.21;43.64;100973.66;5026226;28;20518;-87
2023/04/11 08:02:06;;;;;;;4.82;3.58;;;;;;;15.20;44.12;100974.56;5020774;28;20037;-86
2023/04/11 08:04:32;;;;;;;8.57;4.38;;;;;;;15.23;43.46;100957.06;5028806;28;20029;-85
2023/04/11 08:06:58;;;;;;;6.10;2.95;;;;;;;15.37;44.10;100967.47;5011522;28;20030;-86
2023/04/11 08:09:24;;;;;;;6.78;4.18;;;;;;;15.33;44.21;100960.75;5012349;28;20029;-88
2023/04/11 08:11:49;;;;;;;5.78;3.42;;;;;;;15.36;43.96;100953.59;5029385;28;20438;-87
2023/04/11 08:14:15;;;;;;;6.13;3.55;;;;;;;15.54;44.11;100951.59;5030787;28;20044;-83
2023/04/11 08:16:41;;;;;;;4.45;2.72;;;;;;;15.66;44.58;100947.38;5029947;28;20021;-88
2023/04/11 08:19:06;;;;;;;5.15;2.80;;;;;;;15.72;43.49;100958.25;5013057;28;20021;-81
2023/04/11 08:21:32;;;;;;;6.30;3.40;;;;;;;15.68;43.17;100928.09;5003754;28;20025;-83
2023/04/11 08:23:57;;;;;;;5.25;3.05;;;;;;;15.76;41.81;100936.25;5037755;28;20064;-85
2023/04/11 08:26:23;;;;;;;6.10;2.53;;;;;;;15.74;40.62;100914.66;5030244;28;20033;-90
2023/04/11 08:28:49;;;;;;;6.53;2.95;;;;;;;15.81;40.18;100922.91;5030029;28;20033;-85
2023/04/11 08:31:14;;;;;;;5.55;3.33;;;;;;;15.95;41.56;100932.44;5033435;28;20032;-92
2023/04/11 08:33:40;;;;;;;6.63;3.42;;;;;;;16.03;41.83;100919.72;5031985;28;20032;-89
2023/04/11 08:36:09;;;;;;;7.88;3.97;;;;;;;16.12;41.69;100908.63;5031174;28;20033;-84
2023/04/11 08:38:38;;;;;;;6.13;3.65;;;;;;;16.23;41.85;100880.06;5031807;28;20048;-85
2023/04/11 08:41:04;;;;;;;6.20;3.65;;;;;;;16.39;40.48;100892.03;5016042;28;20028;-85
2023/04/11 08:43:32;;;;;;;5.68;3.80;;;;;;;16.53;41.57;100902.38;5013668;28;20025;-92
2023/04/11 08:46:00;;;;;;;8.70;4.32;;;;;;;16.14;41.03;100849.34;5012337;28;20099;-85
2023/04/11 08:48:27;;;;;;;7.20;3.70;;;;;;;16.45;40.73;100889.00;5029627;28;20061;-91
2023/04/11 08:50:52;;;;;;;7.63;3.90;;;;;;;16.52;41.26;100880.66;5029756;28;20127;-86
2023/04/11 08:53:18;;;;;;;7.93;2.90;;;;;;;16.58;41.48;100850.66;5029067;28;20407;-86
2023/04/11 08:55:46;;;;;;;6.55;2.90;;;;;;;16.84;41.62;100880.19;5012703;28;20116;-87
2023/04/11 08:58:12;;;;;;;7.03;3.58;;;;;;;16.73;39.42;100847.00;4985291;28;20047;-89
2023/04/11 09:00:38;;;;;;;5.68;3.08;;;;;;;16.69;39.69;100861.19;4991063;28;20049;-87
2023/04/11 09:03:05;;;;;;;11.73;3.72;;;;;;;16.64;39.66;100845.00;4999727;28;20096;-85
2023/04/11 09:05:35;;;;;;;4.60;3.13;;;;;;;16.79;39.44;100867.44;4991776;28;20482;-87
2023/04/11 09:08:02;;;;;;;5.90;2.92;;;;;;;16.92;40.55;100863.03;4991572;28;21641;-85
2023/04/11 09:10:28;;;;;;;4.80;3.03;;;;;;;16.89;40.41;100842.31;5007102;28;20049;-84
2023/04/11 09:12:54;;;;;;;5.18;3.20;;;;;;;17.07;40.26;100850.63;4991051;28;20453;-85
2023/04/11 09:15:23;;;;;;;6.97;3.85;;;;;;;17.20;39.89;100848.78;4988224;28;20042;-84
2023/04/11 09:17:50;;;;;;;4.53;2.88;;;;;;;17.23;37.68;100845.13;4997923;28;20398;-91
2023/04/11 09:20:16;;;;;;;4.95;2.97;;;;;;;17.24;38.02;100846.78;5008711;28;20022;-84
2023/04/11 09:22:42;;;;;;;4.70;3.05;;;;;;;17.34;36.11;100839.94;4987613;28;20034;-81
2023/04/11 09:25:08;;;;;;;4.15;2.83;;;;;;;17.03;36.36;100828.28;4990184;28;20472;-82
2023/04/11 09:27:33;;;;;;;5.25;3.13;;;;;;;17.31;34.49;100836.72;5005775;28;20087;-88
2023/04/11 09:30:00;;;;;;;5.60;2.70;;;;;;;17.31;34.42;100811.41;4992132;28;20044;-88
2023/04/11 09:32:27;;;;;;;4.20;2.72;;;;;;;17.42;34.24;100808.81;4993890;28;20050;-92
2023/04/11 09:35:06;;;;;;;5.32;3.15;;;;;;;17.52;33.54;100795.06;5004840;28;20025;-83
2023/04/11 09:37:45;;;;;;;3.60;2.05;;;;;;;17.45;32.21;100799.91;5008492;28;20505;-86
2023/04/11 09:40:11;;;;;;;7.00;2.80;;;;;;;17.60;32.67;100797.91;5003454;28;20029;-85
2023/04/11 09:42:37;;;;;;;5.50;2.78;;;;;;;17.73;29.91;100801.31;4999635;28;20087;-87
2023/04/11 09:45:03;;;;;;;3.10;2.05;;;;;;;17.75;30.11;100766.22;5007712;28;20532;-88
2023/04/11 09:47:32;;;;;;;7.47;3.50;;;;;;;18.15;30.62;100807.63;5008875;28;20108;-92
2023/04/11 09:50:01;;;;;;;4.25;3.00;;;;;;;18.05;30.88;100785.75;4989627;28;20041;-86
2023/04/11 09:52:26;;;;;;;4.13;2.55;;;;;;;18.05;31.78;100796.22;5003770;28;20023;-82
2023/04/11 09:54:52;;;;;;;4.32;2.55;;;;;;;18.23;30.44;100793.97;5012778;28;20475;-87
2023/04/11 09:57:18;;;;;;;5.55;2.83;;;;;;;18.35;31.44;100795.59;4967258;28;20038;-86
2023/04/11 09:59:43;;;;;;;3.55;2.28;;;;;;;18.34;30.79;100775.63;5007017;28;20064;-87
2023/04/11 10:02:09;;;;;;;3.90;2.42;;;;;;;18.18;29.39;100767.28;4989837;28;20063;-86
2023/04/11 10:04:35;;;;;;;6.07;2.80;;;;;;;18.14;30.27;100776.34;4975492;28;20084;-89
2023/04/11 10:07:06;;;;;;;7.18;3.00;;;;;;;18.16;30.30;100782.28;5009089;28;20422;-86
2023/04/11 10:09:32;;;;;;;6.55;2.75;;;;;;;18.25;31.25;100781.56;5015707;28;20033;-87
2023/04/11 10:11:57;;;;;;;4.65;2.45;;;;;;;18.46;30.20;100779.03;4994570;28;20034;-87
2023/04/11 10:14:38;;;;;;;4.82;2.80;;;;;;;18.54;29.68;100772.25;5006930;28;20030;-89
2023/04/11 10:17:19;;;;;;;7.28;3.30;;;;;;;18.72;30.37;100763.91;5010940;28;20080;-85
2023/04/11 10:19:46;;;;;;;4.72;2.75;;;;;;;18.96;27.32;100767.13;5010604;28;20598;-85
2023/04/11 10:22:40;;;;;;;4.18;2.22;;;;;;;18.80;27.30;100754.47;5006145;28;20033;-93
2023/04/11 10:25:21;;;;;;;16.05;8.95;;;;;;;18.72;28.59;100756.88;4994045;28;20502;-88
2023/04/11 10:28:00;;;;;;;11.57;6.22;;;;;;;18.60;29.57;100763.91;5011089;28;20057;-83
2023/04/11 10:30:43;;;;;;;5.60;3.13;;;;;;;18.49;29.85;100763.94;5023782;28;20101;-83
2023/04/11 10:33:10;;;;;;;3.63;2.30;;;;;;;18.54;29.69;100756.53;4994442;28;20042;-85
2023/04/11 10:35:57;;;;;;;4.90;1.90;;;;;;;18.58;27.74;100752.72;5016851;28;20557;-84
2023/04/11 10:38:43;;;;;;;4.85;3.00;;;;;;;18.66;26.11;100759.13;5002069;28;20034;-87
2023/04/11 10:41:25;;;;;;;4.53;2.85;;;;;;;18.76;26.25;100754.81;5003476;28;20093;-84
2023/04/11 10:43:51;;;;;;;;;;;;;;;18.57;28.33;100752.81;5015685;28;20398;-81
2023/04/11 10:46:20;;;;;;;4.28;2.85;;;;;;;18.65;28.13;100747.81;5015700;28;19913;-83
2023/04/11 10:48:58;;;;;;;4.55;2.22;;;;;;;18.61;28.04;100736.75;5012146;28;20048;-83
2023/04/11 10:51:25;;;;;;;4.05;2.38;;;;;;;18.62;28.42;100711.38;5015184;28;20545;-82
2023/04/11 10:53:51;;;;;;;3.05;1.98;;;;;;;18.99;28.25;100718.88;4982411;28;20061;-83
2023/04/11 10:56:45;;;;;;;7.35;2.90;;;;;;;19.17;27.11;100718.19;4991236;28;20029;-82
2023/04/11 10:59:29;;;;;;;6.20;2.80;;;;;;;19.20;27.62;100720.53;4998417;28;20049;-82
2023/04/11 11:01:55;;;;;;;4.43;2.15;;;;;;;18.84;28.12;100711.31;5047227;28;20030;-87
2023/04/11 11:04:29;;;;;;;3.95;2.20;;;;;;;18.77;28.51;100711.94;5016263;28;20072;-82
2023/04/11 11:06:54;;;;;;;5.03;2.92;;;;;;;18.90;29.06;100708.19;4996111;28;20068;-88
2023/04/11 11:09:25;;;;;;;4.03;2.75;;;;;;;19.05;28.63;100698.22;5011532;28;20225;-82
2023/04/11 11:12:10;;;;;;;5.68;2.45;;;;;;;19.01;28.42;100685.50;5010277;28;20156;-89
2023/04/11 11:14:40;;;;;;;3.85;2.10;;;;;;;19.34;29.47;100690.53;5026129;28;20017;-86
2023/04/11 11:17:05;;;;;;;4.72;2.70;;;;;;;19.18;29.42;100667.41;5009916;28;20113;-85
2023/04/11 11:19:31;;;;;;;4.43;2.40;;;;;;;19.19;28.46;100678.72;5013360;28;20545;-83
2023/04/11 11:22:02;;;;;;;7.18;3.25;;;;;;;19.16;27.74;100653.56;4996743;28;20025;-85
2023/04/11 11:24:27;;;;;;;6.47;2.65;;;;;;;19.37;26.33;100665.81;5026670;28;20024;-90
2023/04/11 11:26:53;;;;;;;3.40;2.35;;;;;;;19.45;26.39;100668.63;5008795;28;20030;-88
2023/04/11 11:29:37;;;;;;;4.32;2.55;;;;;;;19.29;26.37;100626.31;4991323;28;20069;-83